Pagrindinis puslapis
METAR-TAF:

METAR-TAF

Oro uostai :

Adak Island, Aliaska, Jungtinės Amerikos Valstijos

platuma: 51-52-40N, ilguma: 176-38-45W, Aukštis: 6 m

Dabartinis oras

Ataskaita buvo paskelbta 34 minutes, ne 11:56 UTC
Vėjas 3 kt iš Vakarų/Pietvakarių
Temperatūra 4°C
Drėgmė 100%
Slėgis 1029 hPa
Matomumas: 6.4 km
Apsiniaukę ne aukštis 300 ft
rūkana

METAR: PADK 041156Z AUTO 24003KT 4SM BR OVC003 04/04 A3040 RMK AO2 SLP293 T00440044 10067 20044 51008

Laikas: 04:30 (12:30 UTC)


TAF: trūkstamas

Orai ataskaitas ir orų prognozės (METAR, TAF).

turimą stotys yra geltonos ir raudonos taškus žemėlapyje.

Perkelti pele per norėdami pamatyti stoties vardą.

Tada spustelėkite, norėdami matyti oro stebėjimo ir prognozės.

Norėdami pakeisti žemėlapį: spustelėkite ant žalios mygtukų su juodo kryžiaus žemyn,; žalią mygtuką su brūkšneliu, jei norite nutolinti; arba žalių rodyklių gretimoms žemėlapius.


METAR-TAF: